Platte, Nebraska
Current Conditions -  °F | °C
As of 6:53 PM on Monday 26 Jan 2015 (Local Time) from KHSI Reporting Station
Clear Clear  
Wind Chill:   Ceiling: Unl
Heat Index:   Visibility: 10mi
Dew Point: -1°   Wind: 0mph
Humidity: 50%   Direction: NA
Pressure: 30.03"   Gusts: NA
Location:  40.6115°N, 98.6672°W
Report Text: KHSI 270053Z AUTO 00000KT 10SM CLR 09/M01 A3003 RMK AO2 SLP178 T00941006
Loading
Personal Weather Stations






























Interactive Weather Map New forecast layout! Learn more

10-Day Weather Forecast

Advertisements
Track Severe Weather on mobile